Time;durP1;ratioP1;P1;durP2;ratioP2;P2;SDS_P1;SDS_P2;PMS_P1;PMS_P2;Temp;Humidity;BMP_temperature;BMP_pressure;BME280_temperature;BME280_humidity;BME280_pressure;Samples;Min_cycle;Max_cycle;Signal;HPM_P1;HPM_P2
2023/09/23 00:00:24;;;;;;;5.80;1.60;;;10.90;99.90;;;;;;5013759;28;20053;-59
2023/09/23 00:02:51;;;;;;;6.20;1.30;;;10.90;99.90;;;;;;5013242;28;20121;-64
2023/09/23 00:05:19;;;;;;;4.32;1.23;;;10.90;99.90;;;;;;5013731;28;20041;-53
2023/09/23 00:07:46;;;;;;;6.57;1.90;;;10.80;99.90;;;;;;5012986;28;20057;-58
2023/09/23 00:10:13;;;;;;;4.57;1.40;;;10.80;99.90;;;;;;5013126;28;20080;-63
2023/09/23 00:12:40;;;;;;;3.35;1.27;;;10.80;99.90;;;;;;5013247;28;20056;-57
2023/09/23 00:15:07;;;;;;;3.97;1.35;;;10.80;99.90;;;;;;5012288;28;20062;-60
2023/09/23 00:17:37;;;;;;;6.20;1.60;;;10.80;99.90;;;;;;5013217;28;20124;-60
2023/09/23 00:20:06;;;;;;;8.57;1.50;;;10.70;99.90;;;;;;5013405;28;20505;-56
2023/09/23 00:22:34;;;;;;;4.15;1.58;;;10.70;99.90;;;;;;5013816;28;20038;-61
2023/09/23 00:25:00;;;;;;;5.78;1.40;;;10.70;99.90;;;;;;5013558;28;20092;-55
2023/09/23 00:27:27;;;;;;;5.22;1.58;;;10.70;99.90;;;;;;5012933;28;20421;-59
2023/09/23 00:29:56;;;;;;;9.30;1.92;;;10.70;99.90;;;;;;5011942;28;20058;-56
2023/09/23 00:32:23;;;;;;;5.32;1.30;;;10.70;99.90;;;;;;5011422;28;20429;-64
2023/09/23 00:34:50;;;;;;;3.80;1.20;;;10.60;99.90;;;;;;5013391;28;20038;-62
2023/09/23 00:37:17;;;;;;;5.57;1.65;;;10.70;99.90;;;;;;5012657;28;20060;-60
2023/09/23 00:39:45;;;;;;;4.50;1.48;;;10.60;99.90;;;;;;5013280;28;20060;-60
2023/09/23 00:42:12;;;;;;;10.00;2.03;;;10.60;99.90;;;;;;5011994;28;20129;-55
2023/09/23 00:44:42;;;;;;;6.43;1.45;;;10.60;99.90;;;;;;5013164;28;20494;-57
2023/09/23 00:47:09;;;;;;;5.72;1.77;;;10.60;99.90;;;;;;5012579;28;20045;-55
2023/09/23 00:49:42;;;;;;;9.63;1.75;;;10.60;99.90;;;;;;5011311;28;20053;-60
2023/09/23 00:52:08;;;;;;;7.95;1.90;;;10.60;99.90;;;;;;5011681;28;20042;-55
2023/09/23 00:54:36;;;;;;;5.57;1.48;;;10.50;99.90;;;;;;5013305;28;20046;-58
2023/09/23 00:57:06;;;;;;;7.68;1.90;;;10.50;99.90;;;;;;5012613;28;20113;-57
2023/09/23 00:59:35;;;;;;;6.63;2.08;;;10.50;99.90;;;;;;5014519;28;20033;-56
2023/09/23 01:02:02;;;;;;;3.95;1.40;;;10.50;99.90;;;;;;5016697;28;20042;-58
2023/09/23 01:04:30;;;;;;;5.65;1.60;;;10.50;99.90;;;;;;5015178;28;20050;-54
2023/09/23 01:06:59;;;;;;;7.65;1.70;;;10.50;99.90;;;;;;5015987;28;20045;-52
2023/09/23 01:09:27;;;;;;;7.22;1.75;;;10.50;99.90;;;;;;5016421;28;20096;-56
2023/09/23 01:11:55;;;;;;;8.23;2.08;;;10.50;99.90;;;;;;5016061;28;20038;-59
2023/09/23 01:14:22;;;;;;;7.22;1.65;;;10.40;99.90;;;;;;5015145;28;20069;-58
2023/09/23 01:16:49;;;;;;;7.85;1.67;;;10.40;99.90;;;;;;5021218;28;20041;-59
2023/09/23 01:19:16;;;;;;;9.40;1.95;;;10.40;99.90;;;;;;5034486;28;20053;-64
2023/09/23 01:21:45;;;;;;;4.85;1.40;;;10.40;99.90;;;;;;5035719;28;20113;-61
2023/09/23 01:24:11;;;;;;;8.40;2.00;;;10.30;99.90;;;;;;5034433;28;20045;-55
2023/09/23 01:26:39;;;;;;;7.72;1.98;;;10.30;99.90;;;;;;5034693;28;20118;-53
2023/09/23 01:29:06;;;;;;;6.55;1.70;;;10.30;99.90;;;;;;5036068;28;20385;-63
2023/09/23 01:31:35;;;;;;;6.72;1.90;;;10.30;99.90;;;;;;5035648;28;20115;-59
2023/09/23 01:34:04;;;;;;;6.32;1.58;;;10.30;99.90;;;;;;5034652;28;20065;-58
2023/09/23 01:36:31;;;;;;;6.78;2.05;;;10.30;99.90;;;;;;5034151;28;20048;-60
2023/09/23 01:38:59;;;;;;;6.93;1.77;;;10.20;99.90;;;;;;5034669;28;20045;-57
2023/09/23 01:41:26;;;;;;;10.30;2.65;;;10.20;99.90;;;;;;5034816;28;20151;-56
2023/09/23 01:43:53;;;;;;;7.22;1.45;;;10.20;99.90;;;;;;5035820;28;20046;-52
2023/09/23 01:46:19;;;;;;;9.10;1.70;;;10.20;99.90;;;;;;5035423;28;20429;-59
2023/09/23 01:48:47;;;;;;;9.55;2.35;;;10.20;99.90;;;;;;5033513;28;20049;-58
2023/09/23 01:51:16;;;;;;;15.30;3.72;;;10.20;99.90;;;;;;5035424;28;20044;-58
2023/09/23 01:53:43;;;;;;;14.15;2.80;;;10.10;99.90;;;;;;5034093;28;20132;-61
2023/09/23 01:56:11;;;;;;;11.55;2.90;;;10.10;99.90;;;;;;5035263;28;20045;-58
2023/09/23 01:58:38;;;;;;;16.92;3.40;;;10.10;99.90;;;;;;5034217;28;20041;-52
2023/09/23 02:01:05;;;;;;;9.13;2.42;;;10.10;99.90;;;;;;5034317;28;20186;-61
2023/09/23 02:03:33;;;;;;;7.05;1.85;;;10.10;99.90;;;;;;5035444;28;20048;-65
2023/09/23 02:06:01;;;;;;;9.07;1.95;;;10.10;99.90;;;;;;5034002;28;20484;-58
2023/09/23 02:08:28;;;;;;;6.25;1.50;;;10.10;99.90;;;;;;5035023;28;20049;-60
2023/09/23 02:10:56;;;;;;;8.70;1.98;;;10.00;99.90;;;;;;5035033;28;20239;-60
2023/09/23 02:13:22;;;;;;;10.55;2.10;;;10.00;99.90;;;;;;5035232;28;20050;-57
2023/09/23 02:15:51;;;;;;;8.82;2.15;;;10.00;99.90;;;;;;5034782;28;20048;-58
2023/09/23 02:18:18;;;;;;;6.35;1.90;;;9.90;99.90;;;;;;5033846;28;20084;-60
2023/09/23 02:20:44;;;;;;;8.35;2.10;;;9.90;99.90;;;;;;5033880;28;20132;-58
2023/09/23 02:23:12;;;;;;;6.60;1.70;;;9.90;99.90;;;;;;5033213;28;20484;-54
2023/09/23 02:25:41;;;;;;;7.32;1.75;;;9.90;99.90;;;;;;5033331;28;20143;-58
2023/09/23 02:28:09;;;;;;;10.70;2.20;;;9.90;99.90;;;;;;5033138;28;20132;-62
2023/09/23 02:30:36;;;;;;;8.52;1.73;;;9.90;99.90;;;;;;5033875;28;20064;-59
2023/09/23 02:33:03;;;;;;;8.40;1.90;;;9.90;99.90;;;;;;5033355;28;20567;-56
2023/09/23 02:35:30;;;;;;;10.10;2.30;;;9.90;99.90;;;;;;5034603;28;20038;-57
2023/09/23 02:37:58;;;;;;;12.25;2.85;;;9.90;99.90;;;;;;5034557;28;20045;-59
2023/09/23 02:40:27;;;;;;;10.65;2.67;;;9.80;99.90;;;;;;5034202;28;20037;-57
2023/09/23 02:42:57;;;;;;;8.90;2.40;;;9.80;99.90;;;;;;5034706;28;20164;-59
2023/09/23 02:45:24;;;;;;;9.75;2.10;;;9.80;99.90;;;;;;5033305;28;20060;-57
2023/09/23 02:47:52;;;;;;;8.85;2.10;;;9.80;99.90;;;;;;5032697;28;20461;-56
2023/09/23 02:50:20;;;;;;;9.45;2.20;;;9.80;99.90;;;;;;5034051;28;20049;-58
2023/09/23 02:52:50;;;;;;;14.80;3.30;;;9.80;99.90;;;;;;5033209;28;20420;-56
2023/09/23 02:55:19;;;;;;;9.43;2.65;;;9.80;99.90;;;;;;5032935;28;20042;-53
2023/09/23 02:57:48;;;;;;;9.27;2.28;;;9.80;99.90;;;;;;5034188;28;20087;-57
2023/09/23 03:00:19;;;;;;;6.07;1.85;;;9.80;99.90;;;;;;5034232;28;20045;-54
2023/09/23 03:02:48;;;;;;;10.52;2.33;;;9.80;99.90;;;;;;5034072;28;20508;-55
2023/09/23 03:05:18;;;;;;;8.27;1.90;;;9.80;99.90;;;;;;5034091;28;20045;-55
2023/09/23 03:07:49;;;;;;;11.65;1.98;;;9.80;99.90;;;;;;5034061;28;20049;-60
2023/09/23 03:10:19;;;;;;;9.20;2.20;;;9.80;99.90;;;;;;5034228;28;20087;-58
2023/09/23 03:12:53;;;;;;;7.70;1.95;;;9.70;99.90;;;;;;5033720;28;20048;-57
2023/09/23 03:15:22;;;;;;;12.10;2.17;;;9.70;99.90;;;;;;5032620;28;20049;-56
2023/09/23 03:17:53;;;;;;;6.38;1.75;;;9.70;99.90;;;;;;5033475;28;20049;-62
2023/09/23 03:20:21;;;;;;;9.63;2.28;;;9.70;99.90;;;;;;5032128;28;20073;-50
2023/09/23 03:22:48;;;;;;;8.23;1.80;;;9.70;99.90;;;;;;5033294;28;20037;-58
2023/09/23 03:25:17;;;;;;;11.10;2.25;;;9.70;99.90;;;;;;5033892;28;20048;-57
2023/09/23 03:27:44;;;;;;;8.63;2.00;;;9.70;99.90;;;;;;5032412;28;20536;-59
2023/09/23 03:30:12;;;;;;;9.95;2.63;;;9.70;99.90;;;;;;5032569;28;20495;-58
2023/09/23 03:32:40;;;;;;;6.85;2.05;;;9.70;99.90;;;;;;5031822;28;20053;-52
2023/09/23 03:35:16;;;;;;;8.70;2.38;;;9.60;99.90;;;;;;5033782;28;20057;-53
2023/09/23 03:37:45;;;;;;;11.05;2.10;;;9.60;99.90;;;;;;5032065;28;20049;-60
2023/09/23 03:40:15;;;;;;;11.63;2.35;;;9.60;99.90;;;;;;5031800;28;20041;-61
2023/09/23 03:42:42;;;;;;;9.82;1.80;;;9.60;99.90;;;;;;5032354;28;20038;-53
2023/09/23 03:45:10;;;;;;;10.05;2.00;;;9.60;99.90;;;;;;5031762;28;20401;-60
2023/09/23 03:47:37;;;;;;;11.18;2.20;;;9.60;99.90;;;;;;5033159;28;20045;-57
2023/09/23 03:50:04;;;;;;;13.18;2.25;;;9.60;99.90;;;;;;5033173;28;20061;-64
2023/09/23 03:52:31;;;;;;;15.30;3.08;;;9.50;99.90;;;;;;5033156;28;20056;-59
2023/09/23 03:54:57;;;;;;;7.65;1.88;;;9.50;99.90;;;;;;5032873;28;20489;-59
2023/09/23 03:57:24;;;;;;;10.75;1.95;;;9.50;99.90;;;;;;5033022;28;20040;-59
2023/09/23 03:59:51;;;;;;;11.30;2.20;;;9.50;99.90;;;;;;5016128;28;20037;-58
2023/09/23 04:02:18;;;;;;;7.15;1.92;;;9.50;99.90;;;;;;5033080;28;20401;-58
2023/09/23 04:04:45;;;;;;;9.30;2.03;;;9.50;99.90;;;;;;5031714;28;20091;-61
2023/09/23 04:07:15;;;;;;;7.25;2.30;;;9.50;99.90;;;;;;5031536;28;20046;-59
2023/09/23 04:09:42;;;;;;;9.85;2.05;;;9.50;99.90;;;;;;5033034;28;20096;-59
2023/09/23 04:12:09;;;;;;;9.65;2.35;;;9.50;99.90;;;;;;5032960;28;20512;-58
2023/09/23 04:14:37;;;;;;;8.85;2.50;;;9.50;99.90;;;;;;5033157;28;20143;-57
2023/09/23 04:17:03;;;;;;;8.10;2.10;;;9.40;99.90;;;;;;5031398;28;20033;-59
2023/09/23 04:19:30;;;;;;;11.27;2.25;;;9.40;99.90;;;;;;5033184;28;20048;-55
2023/09/23 04:21:57;;;;;;;13.02;2.05;;;9.40;99.90;;;;;;5033143;28;20469;-57
2023/09/23 04:24:24;;;;;;;11.13;2.17;;;9.40;99.90;;;;;;5033102;28;20050;-55
2023/09/23 04:26:53;;;;;;;11.27;2.40;;;9.40;99.90;;;;;;5033067;28;20038;-56
2023/09/23 04:29:21;;;;;;;9.23;2.30;;;9.40;99.90;;;;;;5033277;28;20108;-62
2023/09/23 04:31:49;;;;;;;9.05;1.95;;;9.40;99.90;;;;;;5032602;28;20042;-53
2023/09/23 04:34:17;;;;;;;5.78;2.00;;;9.40;99.90;;;;;;5035960;28;20454;-58
2023/09/23 04:36:46;;;;;;;6.95;2.22;;;9.40;99.90;;;;;;5036937;28;20045;-58
2023/09/23 04:39:13;;;;;;;7.20;1.95;;;9.40;99.90;;;;;;5037091;28;20497;-58
2023/09/23 04:41:41;;;;;;;9.63;2.35;;;9.40;99.90;;;;;;5036869;28;20048;-54
2023/09/23 04:44:08;;;;;;;14.07;3.22;;;9.40;99.90;;;;;;5036852;28;20120;-57
2023/09/23 04:46:35;;;;;;;6.35;1.80;;;9.40;99.90;;;;;;5036466;28;20049;-58
2023/09/23 04:49:02;;;;;;;9.73;2.10;;;9.40;99.90;;;;;;5036527;28;20073;-58
2023/09/23 04:51:29;;;;;;;7.90;2.20;;;9.40;99.90;;;;;;5036677;28;20072;-60
2023/09/23 04:53:56;;;;;;;9.80;2.25;;;9.40;99.90;;;;;;5036924;28;20048;-57
2023/09/23 04:56:23;;;;;;;8.65;2.35;;;9.40;99.90;;;;;;5036597;28;20429;-59
2023/09/23 04:58:50;;;;;;;10.43;2.70;;;9.40;99.90;;;;;;5036438;28;20072;-59
2023/09/23 05:01:18;;;;;;;8.05;1.85;;;9.40;99.90;;;;;;5036287;28;20037;-54
2023/09/23 05:03:46;;;;;;;8.20;1.80;;;9.40;99.90;;;;;;5036123;28;20128;-60
2023/09/23 05:06:13;;;;;;;7.20;2.15;;;9.40;99.90;;;;;;5035819;28;20046;-56
2023/09/23 05:08:40;;;;;;;9.05;1.98;;;9.30;99.90;;;;;;5036472;28;20210;-58
2023/09/23 05:11:11;;;;;;;11.05;2.20;;;9.30;99.90;;;;;;5036784;28;20040;-59
2023/09/23 05:13:38;;;;;;;9.25;1.90;;;9.30;99.90;;;;;;5036211;28;20413;-59
2023/09/23 05:16:05;;;;;;;10.13;1.98;;;9.30;99.90;;;;;;5036308;28;20469;-61
2023/09/23 05:18:32;;;;;;;8.07;2.08;;;9.30;99.90;;;;;;5036443;28;20052;-58
2023/09/23 05:20:59;;;;;;;13.30;2.10;;;9.30;99.90;;;;;;5036179;28;20396;-60
2023/09/23 05:23:26;;;;;;;8.40;1.90;;;9.30;99.90;;;;;;5035692;28;20063;-61
2023/09/23 05:25:57;;;;;;;7.07;2.20;;;9.20;99.90;;;;;;5036340;28;20385;-61
2023/09/23 05:28:27;;;;;;;9.82;2.13;;;9.20;99.90;;;;;;5035841;28;20076;-57
2023/09/23 05:30:54;;;;;;;11.57;1.95;;;9.20;99.90;;;;;;5036486;28;20044;-55
2023/09/23 05:33:21;;;;;;;9.25;1.90;;;9.20;99.90;;;;;;5035661;28;20099;-58
2023/09/23 05:35:48;;;;;;;9.93;1.95;;;9.20;99.90;;;;;;5035595;28;20124;-62
2023/09/23 05:38:15;;;;;;;10.77;1.88;;;9.20;99.90;;;;;;5034073;28;20041;-59
2023/09/23 05:40:41;;;;;;;11.55;2.15;;;9.20;99.90;;;;;;5035429;28;20049;-57
2023/09/23 05:43:11;;;;;;;9.02;2.22;;;9.20;99.90;;;;;;5035323;28;20120;-53
2023/09/23 05:45:38;;;;;;;10.68;2.40;;;9.20;99.90;;;;;;5034877;28;20056;-58
2023/09/23 05:48:05;;;;;;;8.50;2.00;;;9.10;99.90;;;;;;5035390;28;20057;-53
2023/09/23 05:50:31;;;;;;;6.57;1.80;;;9.10;99.90;;;;;;5035392;28;20133;-54
2023/09/23 05:52:58;;;;;;;7.60;2.00;;;9.10;99.90;;;;;;5034026;28;20049;-60
2023/09/23 05:55:25;;;;;;;8.73;2.05;;;9.10;99.90;;;;;;5035552;28;20033;-60
2023/09/23 05:57:52;;;;;;;7.47;2.00;;;9.10;99.90;;;;;;5035655;28;20037;-60
2023/09/23 06:00:19;;;;;;;7.30;1.95;;;9.10;99.90;;;;;;5034983;28;20049;-58
2023/09/23 06:02:47;;;;;;;8.30;2.78;;;9.10;99.90;;;;;;5035541;28;20069;-61
2023/09/23 06:05:14;;;;;;;8.65;1.98;;;9.10;99.90;;;;;;5035582;28;20099;-61
2023/09/23 06:07:41;;;;;;;10.38;2.40;;;9.10;99.90;;;;;;5035347;28;20049;-53
2023/09/23 06:10:08;;;;;;;11.32;2.10;;;9.10;99.90;;;;;;5035166;28;20119;-55
2023/09/23 06:12:35;;;;;;;8.52;2.00;;;9.10;99.90;;;;;;5035076;28;20116;-58
2023/09/23 06:15:02;;;;;;;8.02;1.70;;;9.10;99.90;;;;;;5034926;28;20125;-61
2023/09/23 06:17:29;;;;;;;8.93;1.92;;;9.10;99.90;;;;;;5034815;28;20478;-55
2023/09/23 06:19:56;;;;;;;5.57;1.67;;;9.10;99.90;;;;;;5034705;28;20041;-57
2023/09/23 06:22:23;;;;;;;6.55;1.58;;;9.10;99.90;;;;;;5034779;28;20048;-63
2023/09/23 06:24:53;;;;;;;8.77;1.85;;;9.20;99.90;;;;;;5034439;28;20481;-58
2023/09/23 06:27:19;;;;;;;7.82;2.13;;;9.20;99.90;;;;;;5034436;28;20037;-57
2023/09/23 06:29:46;;;;;;;9.63;2.03;;;9.20;99.90;;;;;;5034422;28;20033;-57
2023/09/23 06:32:13;;;;;;;10.48;3.35;;;9.20;99.90;;;;;;5034063;28;20068;-63
2023/09/23 06:34:40;;;;;;;9.18;2.17;;;9.20;99.90;;;;;;5034219;28;20042;-53
2023/09/23 06:37:07;;;;;;;7.72;1.95;;;9.30;99.90;;;;;;5034305;28;20038;-57
2023/09/23 06:39:34;;;;;;;6.50;1.83;;;9.30;99.90;;;;;;5034742;28;20038;-59
2023/09/23 06:42:00;;;;;;;8.30;2.03;;;9.30;99.90;;;;;;5034927;28;20436;-58
2023/09/23 06:44:27;;;;;;;7.68;1.92;;;9.40;99.90;;;;;;5034623;28;20040;-59
2023/09/23 06:46:54;;;;;;;10.23;2.05;;;9.40;99.90;;;;;;5034099;28;20128;-60
2023/09/23 06:49:22;;;;;;;10.13;1.90;;;9.40;99.90;;;;;;5034189;28;20055;-59
2023/09/23 06:51:49;;;;;;;6.47;2.25;;;9.50;99.90;;;;;;5034615;28;20115;-61
2023/09/23 06:54:16;;;;;;;8.98;1.85;;;9.50;99.90;;;;;;5034186;28;20041;-62
2023/09/23 06:56:43;;;;;;;4.97;1.63;;;9.50;99.90;;;;;;5032922;28;20041;-59
2023/09/23 06:59:10;;;;;;;9.68;2.00;;;9.60;99.90;;;;;;5034654;28;20041;-59
2023/09/23 07:01:36;;;;;;;7.65;1.85;;;9.60;99.90;;;;;;5034655;28;20034;-62
2023/09/23 07:04:05;;;;;;;8.07;2.03;;;9.70;99.90;;;;;;5049642;28;20127;-58
2023/09/23 07:06:32;;;;;;;8.90;1.98;;;9.70;99.90;;;;;;5052513;28;20106;-58
2023/09/23 07:08:59;;;;;;;7.68;1.80;;;9.70;99.90;;;;;;5053948;28;20040;-57
2023/09/23 07:11:26;;;;;;;9.35;2.35;;;9.80;99.90;;;;;;5053615;28;20049;-58
2023/09/23 07:13:53;;;;;;;8.10;1.75;;;9.80;99.90;;;;;;5054226;28;20535;-59
2023/09/23 07:16:20;;;;;;;7.35;2.03;;;9.90;99.90;;;;;;5053814;28;20041;-58
2023/09/23 07:18:46;;;;;;;8.85;1.80;;;9.90;99.90;;;;;;5053839;28;20118;-55
2023/09/23 07:21:13;;;;;;;10.13;1.90;;;10.00;99.90;;;;;;5054010;28;20098;-61
2023/09/23 07:23:40;;;;;;;9.68;1.77;;;10.00;99.90;;;;;;5053932;28;20463;-56
2023/09/23 07:26:07;;;;;;;7.95;2.00;;;10.10;99.90;;;;;;5052815;28;20044;-61
2023/09/23 07:28:34;;;;;;;11.43;1.70;;;10.10;99.90;;;;;;5053173;28;20045;-58
2023/09/23 07:31:01;;;;;;;5.88;1.58;;;10.20;99.90;;;;;;5053509;28;20111;-56
2023/09/23 07:33:28;;;;;;;8.10;1.80;;;10.20;99.90;;;;;;5053578;28;20068;-52
2023/09/23 07:35:54;;;;;;;8.85;1.92;;;10.20;99.90;;;;;;5053729;28;20037;-55
2023/09/23 07:38:21;;;;;;;7.78;1.90;;;10.30;99.90;;;;;;5053580;28;20045;-60
2023/09/23 07:40:49;;;;;;;8.63;1.95;;;10.30;99.90;;;;;;5048733;28;20038;-58
2023/09/23 07:43:16;;;;;;;10.30;1.60;;;10.40;99.90;;;;;;5034149;28;20114;-59
2023/09/23 07:45:42;;;;;;;5.78;1.73;;;10.40;99.90;;;;;;5024081;28;20069;-56
2023/09/23 07:48:09;;;;;;;10.13;2.22;;;10.50;99.90;;;;;;5023665;28;20392;-58
2023/09/23 07:50:36;;;;;;;7.65;2.05;;;10.50;99.90;;;;;;5023379;28;20058;-55
2023/09/23 07:53:03;;;;;;;10.25;1.77;;;10.60;99.90;;;;;;5022167;28;20048;-57
2023/09/23 07:55:30;;;;;;;6.63;2.28;;;10.60;99.90;;;;;;5023393;28;20171;-58
2023/09/23 07:57:57;;;;;;;10.95;1.90;;;10.70;99.90;;;;;;5023546;28;20042;-55
2023/09/23 08:00:24;;;;;;;9.63;2.08;;;10.80;99.90;;;;;;5022575;28;20450;-55
2023/09/23 08:02:54;;;;;;;9.30;2.17;;;10.80;99.90;;;;;;5023141;28;20457;-59
2023/09/23 08:05:24;;;;;;;8.25;2.33;;;10.90;99.90;;;;;;5022816;28;20399;-61
2023/09/23 08:07:51;;;;;;;10.63;2.25;;;10.90;99.90;;;;;;5025516;28;20469;-56
2023/09/23 08:10:18;;;;;;;9.35;1.70;;;10.90;99.90;;;;;;5012957;28;20093;-58
2023/09/23 08:12:45;;;;;;;8.65;2.10;;;11.00;99.90;;;;;;5013421;28;20046;-59
2023/09/23 08:15:11;;;;;;;5.78;1.50;;;11.00;99.90;;;;;;5013503;28;20038;-61
2023/09/23 08:17:39;;;;;;;9.02;1.95;;;11.10;99.90;;;;;;5013734;28;20436;-60
2023/09/23 08:20:17;;;;;;;8.48;1.92;;;11.10;99.90;;;;;;5013200;28;20069;-59
2023/09/23 08:22:44;;;;;;;8.75;1.58;;;11.20;99.90;;;;;;5013196;28;20038;-56
2023/09/23 08:25:11;;;;;;;14.02;2.28;;;11.20;99.90;;;;;;5012139;28;20038;-59
2023/09/23 08:27:38;;;;;;;5.25;1.83;;;11.30;99.90;;;;;;5013377;28;20045;-60
2023/09/23 08:30:05;;;;;;;6.28;1.80;;;11.30;99.90;;;;;;5013147;28;20053;-55
2023/09/23 08:32:32;;;;;;;7.63;1.55;;;11.40;99.90;;;;;;5013514;28;20125;-58
2023/09/23 08:34:59;;;;;;;7.80;2.20;;;11.40;99.90;;;;;;5013069;28;20565;-54
2023/09/23 08:37:26;;;;;;;15.40;3.28;;;11.50;99.90;;;;;;5012771;28;20045;-62
2023/09/23 08:39:53;;;;;;;7.45;1.67;;;11.50;99.90;;;;;;5013731;28;20057;-58
2023/09/23 08:42:20;;;;;;;8.65;1.95;;;11.60;99.90;;;;;;5012895;28;20030;-58
2023/09/23 08:44:47;;;;;;;9.65;2.20;;;11.60;99.90;;;;;;5013509;28;20036;-51
2023/09/23 08:47:14;;;;;;;8.07;1.70;;;11.70;99.90;;;;;;5013423;28;20053;-53
2023/09/23 08:49:41;;;;;;;11.65;2.30;;;11.70;99.90;;;;;;5013100;28;20061;-59
2023/09/23 08:52:08;;;;;;;11.20;2.08;;;11.80;99.90;;;;;;5013206;28;20042;-60
2023/09/23 08:54:35;;;;;;;9.68;2.55;;;11.80;99.90;;;;;;5013683;28;20440;-60
2023/09/23 08:57:02;;;;;;;7.75;1.88;;;11.80;99.90;;;;;;5012673;28;20038;-60
2023/09/23 08:59:29;;;;;;;6.80;2.60;;;11.90;99.90;;;;;;5013302;28;20461;-58
2023/09/23 09:01:55;;;;;;;11.00;2.00;;;12.00;99.90;;;;;;5012887;28;20034;-55
2023/09/23 09:04:23;;;;;;;11.77;2.40;;;12.00;99.90;;;;;;5012519;28;20125;-57
2023/09/23 09:06:50;;;;;;;8.07;2.08;;;12.10;99.90;;;;;;5012442;28;20041;-57
2023/09/23 09:09:17;;;;;;;9.60;2.00;;;12.20;99.90;;;;;;5013076;28;20045;-55
2023/09/23 09:11:44;;;;;;;9.30;2.47;;;12.20;99.90;;;;;;5012759;28;20125;-56
2023/09/23 09:14:10;;;;;;;6.07;1.90;;;12.20;99.90;;;;;;5012777;28;20124;-62
2023/09/23 09:16:38;;;;;;;12.93;2.83;;;12.30;99.90;;;;;;5012837;28;20096;-60
2023/09/23 09:19:05;;;;;;;9.13;1.80;;;12.30;99.90;;;;;;5012947;28;20046;-61
2023/09/23 09:21:32;;;;;;;11.05;2.42;;;12.40;99.90;;;;;;5015833;28;20100;-57
2023/09/23 09:23:59;;;;;;;8.02;2.30;;;12.50;99.90;;;;;;5033446;28;20095;-61
2023/09/23 09:26:25;;;;;;;9.95;1.92;;;12.50;99.90;;;;;;5035506;28;20049;-51
2023/09/23 09:28:53;;;;;;;9.43;2.30;;;12.60;99.90;;;;;;5035226;28;20428;-58
2023/09/23 09:31:19;;;;;;;8.38;1.77;;;12.60;99.90;;;;;;5035598;28;20045;-62
2023/09/23 09:33:50;;;;;;;6.57;2.00;;;12.70;99.90;;;;;;5035297;28;20045;-59
2023/09/23 09:36:20;;;;;;;10.32;2.13;;;12.80;99.90;;;;;;5034561;28;20044;-55
2023/09/23 09:38:46;;;;;;;8.00;1.90;;;12.80;99.90;;;;;;5035483;28;20052;-57
2023/09/23 09:41:14;;;;;;;13.50;2.28;;;12.90;99.90;;;;;;5034419;28;20080;-56
2023/09/23 09:43:40;;;;;;;10.25;2.35;;;12.90;99.90;;;;;;5035628;28;20044;-58
2023/09/23 09:46:08;;;;;;;12.73;2.22;;;12.90;99.90;;;;;;5034556;28;20045;-63
2023/09/23 09:48:37;;;;;;;9.75;2.38;;;13.00;99.90;;;;;;5035380;28;20476;-57
2023/09/23 09:51:05;;;;;;;8.32;2.30;;;13.00;99.90;;;;;;5034914;28;20536;-56
2023/09/23 09:53:33;;;;;;;8.45;2.17;;;13.10;99.90;;;;;;5034780;28;20440;-57
2023/09/23 09:56:00;;;;;;;7.97;2.10;;;13.20;99.90;;;;;;5029841;28;20551;-58
2023/09/23 09:58:26;;;;;;;8.43;1.85;;;13.20;99.90;;;;;;5033144;28;20456;-55
2023/09/23 10:00:53;;;;;;;6.43;2.50;;;13.30;99.90;;;;;;5033887;28;20041;-58
2023/09/23 10:03:21;;;;;;;13.13;2.50;;;13.40;99.90;;;;;;5034729;28;20033;-55
2023/09/23 10:05:50;;;;;;;10.48;2.72;;;13.40;99.90;;;;;;5033578;28;20056;-55
2023/09/23 10:08:17;;;;;;;8.07;2.00;;;13.40;99.90;;;;;;5034092;28;20040;-61
2023/09/23 10:10:44;;;;;;;10.00;2.42;;;13.40;99.90;;;;;;5034601;28;20033;-54
2023/09/23 10:13:11;;;;;;;8.73;2.30;;;13.60;99.90;;;;;;5034297;28;20062;-62
2023/09/23 10:15:40;;;;;;;9.50;2.20;;;13.60;99.90;;;;;;5034251;28;20034;-60
2023/09/23 10:18:07;;;;;;;9.00;2.70;;;13.60;99.90;;;;;;5033742;28;20489;-58
2023/09/23 10:20:34;;;;;;;9.68;2.30;;;13.60;99.90;;;;;;5033201;28;20044;-56
2023/09/23 10:23:01;;;;;;;8.38;2.00;;;13.70;99.90;;;;;;5034382;28;20091;-56
2023/09/23 10:25:28;;;;;;;7.50;2.15;;;13.70;99.90;;;;;;5033020;28;20077;-56
2023/09/23 10:27:56;;;;;;;8.90;2.08;;;13.80;99.90;;;;;;5033278;28;20048;-60
2023/09/23 10:30:23;;;;;;;7.18;1.90;;;13.80;99.90;;;;;;5033311;28;20046;-61
2023/09/23 10:32:49;;;;;;;8.60;2.10;;;13.80;99.90;;;;;;5032557;28;20052;-56
2023/09/23 10:35:16;;;;;;;7.93;2.00;;;13.90;99.90;;;;;;5033348;28;20092;-59
2023/09/23 10:37:44;;;;;;;11.70;3.33;;;13.90;99.90;;;;;;5033428;28;20369;-56
2023/09/23 10:40:14;;;;;;;10.27;1.90;;;14.00;99.90;;;;;;5034124;28;20044;-61
2023/09/23 10:42:41;;;;;;;8.73;2.05;;;14.00;99.90;;;;;;5033365;28;20041;-59
2023/09/23 10:45:08;;;;;;;8.32;1.70;;;14.10;99.90;;;;;;5034376;28;20053;-53
2023/09/23 10:47:38;;;;;;;5.65;1.70;;;14.20;99.90;;;;;;5033534;28;20488;-54
2023/09/23 10:50:10;;;;;;;7.72;1.70;;;14.30;99.90;;;;;;5032771;28;20061;-55
2023/09/23 10:52:38;;;;;;;7.45;1.92;;;14.30;99.90;;;;;;5034123;28;20045;-62
2023/09/23 10:55:05;;;;;;;6.80;1.83;;;14.50;99.90;;;;;;5033460;28;20045;-55
2023/09/23 10:57:32;;;;;;;5.18;1.67;;;14.40;99.90;;;;;;5033932;28;20038;-60
2023/09/23 10:59:59;;;;;;;6.07;1.40;;;14.40;99.90;;;;;;5032594;28;20451;-56
2023/09/23 11:02:26;;;;;;;7.03;1.55;;;14.40;99.90;;;;;;5032685;28;20064;-58
2023/09/23 11:04:53;;;;;;;6.05;1.55;;;14.40;99.90;;;;;;5033743;28;20453;-59
2023/09/23 11:07:20;;;;;;;6.30;1.88;;;14.60;99.90;;;;;;5032991;28;20092;-55
2023/09/23 11:09:47;;;;;;;6.70;1.85;;;14.70;99.90;;;;;;5028057;28;20053;-54
2023/09/23 11:12:15;;;;;;;9.60;1.77;;;14.80;99.90;;;;;;5033474;28;20049;-54
2023/09/23 11:14:42;;;;;;;6.70;1.75;;;14.80;99.90;;;;;;5032764;28;20080;-58
2023/09/23 11:17:08;;;;;;;6.57;1.92;;;14.80;99.90;;;;;;5033156;28;20052;-59
2023/09/23 11:19:35;;;;;;;7.30;1.63;;;14.80;99.90;;;;;;5032770;28;20527;-55
2023/09/23 11:22:02;;;;;;;10.40;2.75;;;14.90;99.90;;;;;;5032732;28;20041;-58
2023/09/23 11:24:29;;;;;;;7.97;1.58;;;15.00;99.90;;;;;;5033516;28;20041;-59
2023/09/23 11:26:55;;;;;;;7.25;1.60;;;15.20;99.90;;;;;;5027429;28;20132;-56
2023/09/23 11:29:22;;;;;;;6.13;1.77;;;15.20;99.90;;;;;;5026882;28;20436;-54
2023/09/23 11:31:49;;;;;;;4.05;1.33;;;15.30;99.90;;;;;;5025705;28;20057;-58
2023/09/23 11:34:16;;;;;;;7.72;1.55;;;15.40;99.90;;;;;;5033265;28;20381;-60
2023/09/23 11:36:43;;;;;;;7.65;1.40;;;15.40;99.90;;;;;;5032817;28;20037;-64
2023/09/23 11:39:12;;;;;;;8.63;1.90;;;15.50;99.90;;;;;;5032645;28;20118;-60
2023/09/23 11:41:38;;;;;;;5.07;1.42;;;15.50;99.90;;;;;;5032936;28;20046;-57
2023/09/23 11:44:05;;;;;;;4.13;1.33;;;15.60;99.90;;;;;;5031503;28;20041;-57
2023/09/23 11:46:32;;;;;;;5.30;1.10;;;15.60;99.90;;;;;;5033032;28;20129;-58
2023/09/23 11:48:59;;;;;;;5.05;1.63;;;15.70;99.90;;;;;;5033054;28;20041;-54
2023/09/23 11:51:26;;;;;;;4.65;1.25;;;15.70;99.90;;;;;;5031124;28;20500;-59
2023/09/23 11:53:53;;;;;;;5.45;1.48;;;15.70;99.90;;;;;;5030661;28;20056;-55
2023/09/23 11:56:20;;;;;;;5.15;1.50;;;15.80;99.70;;;;;;5031578;28;20041;-63
2023/09/23 11:58:47;;;;;;;5.40;1.38;;;15.80;99.90;;;;;;5031557;28;20033;-59
2023/09/23 12:01:31;;;;;;;4.53;1.40;;;15.80;99.90;;;;;;5032032;28;20050;-55
2023/09/23 12:03:58;;;;;;;6.28;2.00;;;15.90;99.90;;;;;;5031527;28;20033;-58
2023/09/23 12:06:25;;;;;;;4.68;1.45;;;15.90;99.90;;;;;;5032763;28;20407;-60
2023/09/23 12:08:52;;;;;;;5.07;1.40;;;16.00;99.90;;;;;;5031861;28;20095;-61
2023/09/23 12:11:21;;;;;;;5.32;1.80;;;16.10;99.90;;;;;;5032805;28;20041;-60
2023/09/23 12:13:48;;;;;;;7.30;1.48;;;16.30;99.90;;;;;;5032532;28;20474;-58
2023/09/23 12:16:15;;;;;;;4.57;1.20;;;16.30;99.90;;;;;;5032645;28;20481;-61
2023/09/23 12:18:44;;;;;;;7.30;1.67;;;16.30;99.90;;;;;;5031748;28;20116;-60
2023/09/23 12:21:11;;;;;;;6.15;1.60;;;16.30;99.90;;;;;;5032637;28;20539;-57
2023/09/23 12:23:38;;;;;;;4.90;1.70;;;16.30;99.90;;;;;;5032396;28;20095;-57
2023/09/23 12:26:05;;;;;;;6.65;1.70;;;16.30;99.90;;;;;;5032951;28;20077;-61
2023/09/23 12:28:32;;;;;;;5.13;1.60;;;16.20;99.70;;;;;;5028741;28;20072;-62
2023/09/23 12:30:59;;;;;;;4.72;2.08;;;16.20;99.90;;;;;;5031842;28;20520;-61
2023/09/23 12:33:27;;;;;;;5.22;1.70;;;16.20;99.90;;;;;;5015289;28;20080;-58
2023/09/23 12:35:54;;;;;;;3.88;1.67;;;16.30;99.60;;;;;;5023896;28;20048;-58
2023/09/23 12:38:20;;;;;;;5.55;1.48;;;16.20;99.20;;;;;;5032463;28;20481;-57
2023/09/23 12:40:47;;;;;;;6.38;1.60;;;16.20;99.00;;;;;;5032746;28;20087;-60
2023/09/23 12:43:14;;;;;;;4.63;1.50;;;16.20;98.30;;;;;;5031541;28;20485;-63
2023/09/23 12:45:43;;;;;;;5.88;1.50;;;16.20;98.90;;;;;;5032331;28;20587;-59
2023/09/23 12:48:10;;;;;;;5.10;1.40;;;16.20;98.70;;;;;;5014776;28;20058;-60